sensor_id;sensor_type;location;lat;lon;timestamp;P1;durP1;ratioP1;P2;durP2;ratioP2
11588;SDS011;5850;51.360;12.362;2023-08-21T00:02:27;5.90;;;4.50;;
11588;SDS011;5850;51.360;12.362;2023-08-21T00:04:55;5.60;;;4.30;;
11588;SDS011;5850;51.360;12.362;2023-08-21T00:07:24;6.73;;;4.40;;
11588;SDS011;5850;51.360;12.362;2023-08-21T00:09:52;5.07;;;4.47;;
11588;SDS011;5850;51.360;12.362;2023-08-21T00:12:21;5.87;;;4.70;;
11588;SDS011;5850;51.360;12.362;2023-08-21T00:14:49;5.40;;;4.57;;
11588;SDS011;5850;51.360;12.362;2023-08-21T00:17:18;6.80;;;4.50;;
11588;SDS011;5850;51.360;12.362;2023-08-21T00:19:46;4.73;;;4.00;;
11588;SDS011;5850;51.360;12.362;2023-08-21T00:22:15;6.83;;;4.43;;
11588;SDS011;5850;51.360;12.362;2023-08-21T00:24:43;5.27;;;4.40;;
11588;SDS011;5850;51.360;12.362;2023-08-21T00:27:12;6.47;;;4.27;;
11588;SDS011;5850;51.360;12.362;2023-08-21T00:29:40;4.67;;;4.27;;
11588;SDS011;5850;51.360;12.362;2023-08-21T00:32:09;7.80;;;4.50;;
11588;SDS011;5850;51.360;12.362;2023-08-21T00:34:38;5.67;;;4.47;;
11588;SDS011;5850;51.360;12.362;2023-08-21T00:37:07;4.97;;;3.97;;
11588;SDS011;5850;51.360;12.362;2023-08-21T00:39:35;6.30;;;4.37;;
11588;SDS011;5850;51.360;12.362;2023-08-21T00:42:03;8.33;;;5.07;;
11588;SDS011;5850;51.360;12.362;2023-08-21T00:44:33;5.43;;;4.00;;
11588;SDS011;5850;51.360;12.362;2023-08-21T00:47:02;7.43;;;4.63;;
11588;SDS011;5850;51.360;12.362;2023-08-21T00:49:30;7.83;;;4.87;;
11588;SDS011;5850;51.360;12.362;2023-08-21T00:51:59;5.23;;;4.70;;
11588;SDS011;5850;51.360;12.362;2023-08-21T00:54:28;4.90;;;4.30;;
11588;SDS011;5850;51.360;12.362;2023-08-21T00:56:57;4.97;;;4.27;;
11588;SDS011;5850;51.360;12.362;2023-08-21T00:59:27;5.00;;;4.50;;
11588;SDS011;5850;51.360;12.362;2023-08-21T01:01:55;5.43;;;4.93;;
11588;SDS011;5850;51.360;12.362;2023-08-21T01:04:23;4.97;;;4.50;;
11588;SDS011;5850;51.360;12.362;2023-08-21T01:06:52;5.47;;;4.77;;
11588;SDS011;5850;51.360;12.362;2023-08-21T01:09:31;5.23;;;4.60;;
11588;SDS011;5850;51.360;12.362;2023-08-21T01:12:13;6.13;;;4.73;;
11588;SDS011;5850;51.360;12.362;2023-08-21T01:15:05;5.10;;;4.60;;
11588;SDS011;5850;51.360;12.362;2023-08-21T01:17:36;5.27;;;4.77;;
11588;SDS011;5850;51.360;12.362;2023-08-21T01:20:06;5.40;;;4.30;;
11588;SDS011;5850;51.360;12.362;2023-08-21T01:22:36;6.20;;;4.77;;
11588;SDS011;5850;51.360;12.362;2023-08-21T01:25:12;7.43;;;4.77;;
11588;SDS011;5850;51.360;12.362;2023-08-21T01:27:47;7.10;;;4.90;;
11588;SDS011;5850;51.360;12.362;2023-08-21T01:30:17;6.50;;;4.73;;
11588;SDS011;5850;51.360;12.362;2023-08-21T01:35:33;6.33;;;4.80;;
11588;SDS011;5850;51.360;12.362;2023-08-21T01:38:03;5.77;;;5.03;;
11588;SDS011;5850;51.360;12.362;2023-08-21T01:40:32;5.40;;;4.60;;
11588;SDS011;5850;51.360;12.362;2023-08-21T01:43:00;5.90;;;5.20;;
11588;SDS011;5850;51.360;12.362;2023-08-21T01:45:29;5.87;;;4.67;;
11588;SDS011;5850;51.360;12.362;2023-08-21T01:47:57;7.30;;;5.50;;
11588;SDS011;5850;51.360;12.362;2023-08-21T01:50:26;5.30;;;4.80;;
11588;SDS011;5850;51.360;12.362;2023-08-21T01:52:54;5.10;;;4.67;;
11588;SDS011;5850;51.360;12.362;2023-08-21T01:55:23;6.57;;;4.67;;
11588;SDS011;5850;51.360;12.362;2023-08-21T01:57:51;6.70;;;4.67;;
11588;SDS011;5850;51.360;12.362;2023-08-21T02:00:19;5.97;;;5.10;;
11588;SDS011;5850;51.360;12.362;2023-08-21T02:02:48;7.03;;;4.87;;
11588;SDS011;5850;51.360;12.362;2023-08-21T02:05:16;6.87;;;5.20;;
11588;SDS011;5850;51.360;12.362;2023-08-21T02:07:45;5.23;;;4.73;;
11588;SDS011;5850;51.360;12.362;2023-08-21T02:10:13;5.73;;;5.10;;
11588;SDS011;5850;51.360;12.362;2023-08-21T02:12:41;4.90;;;4.40;;
11588;SDS011;5850;51.360;12.362;2023-08-21T02:15:11;6.23;;;4.60;;
11588;SDS011;5850;51.360;12.362;2023-08-21T02:17:39;5.77;;;5.17;;
11588;SDS011;5850;51.360;12.362;2023-08-21T02:20:09;5.53;;;4.73;;
11588;SDS011;5850;51.360;12.362;2023-08-21T02:22:38;5.07;;;4.57;;
11588;SDS011;5850;51.360;12.362;2023-08-21T02:25:06;7.77;;;4.93;;
11588;SDS011;5850;51.360;12.362;2023-08-21T02:27:35;5.60;;;4.73;;
11588;SDS011;5850;51.360;12.362;2023-08-21T02:30:03;6.00;;;4.80;;
11588;SDS011;5850;51.360;12.362;2023-08-21T02:32:33;6.77;;;5.20;;
11588;SDS011;5850;51.360;12.362;2023-08-21T02:35:02;5.40;;;4.90;;
11588;SDS011;5850;51.360;12.362;2023-08-21T02:37:31;5.93;;;5.33;;
11588;SDS011;5850;51.360;12.362;2023-08-21T02:40:00;8.10;;;4.90;;
11588;SDS011;5850;51.360;12.362;2023-08-21T02:42:29;6.27;;;4.97;;
11588;SDS011;5850;51.360;12.362;2023-08-21T02:44:57;7.20;;;5.27;;
11588;SDS011;5850;51.360;12.362;2023-08-21T02:47:29;6.80;;;5.30;;
11588;SDS011;5850;51.360;12.362;2023-08-21T02:49:58;5.50;;;5.00;;
11588;SDS011;5850;51.360;12.362;2023-08-21T02:52:26;5.67;;;4.73;;
11588;SDS011;5850;51.360;12.362;2023-08-21T02:54:55;5.87;;;5.33;;
11588;SDS011;5850;51.360;12.362;2023-08-21T02:57:24;6.47;;;5.10;;
11588;SDS011;5850;51.360;12.362;2023-08-21T02:59:53;6.57;;;5.07;;
11588;SDS011;5850;51.360;12.362;2023-08-21T03:02:22;8.77;;;4.57;;
11588;SDS011;5850;51.360;12.362;2023-08-21T03:04:51;6.90;;;5.13;;
11588;SDS011;5850;51.360;12.362;2023-08-21T03:07:19;5.93;;;5.33;;
11588;SDS011;5850;51.360;12.362;2023-08-21T03:09:48;5.37;;;4.83;;
11588;SDS011;5850;51.360;12.362;2023-08-21T03:12:17;9.53;;;5.80;;
11588;SDS011;5850;51.360;12.362;2023-08-21T03:14:45;7.83;;;5.10;;
11588;SDS011;5850;51.360;12.362;2023-08-21T03:17:14;7.33;;;4.77;;
11588;SDS011;5850;51.360;12.362;2023-08-21T03:19:42;6.17;;;4.90;;
11588;SDS011;5850;51.360;12.362;2023-08-21T03:22:10;8.90;;;5.33;;
11588;SDS011;5850;51.360;12.362;2023-08-21T03:24:40;6.00;;;5.30;;
11588;SDS011;5850;51.360;12.362;2023-08-21T03:27:08;5.83;;;4.80;;
11588;SDS011;5850;51.360;12.362;2023-08-21T03:29:36;6.03;;;5.37;;
11588;SDS011;5850;51.360;12.362;2023-08-21T03:32:06;8.80;;;5.40;;
11588;SDS011;5850;51.360;12.362;2023-08-21T03:34:34;5.73;;;5.23;;
11588;SDS011;5850;51.360;12.362;2023-08-21T03:37:02;6.00;;;5.17;;
11588;SDS011;5850;51.360;12.362;2023-08-21T03:39:31;7.70;;;5.37;;
11588;SDS011;5850;51.360;12.362;2023-08-21T03:42:00;8.37;;;5.03;;
11588;SDS011;5850;51.360;12.362;2023-08-21T03:44:29;6.83;;;5.13;;
11588;SDS011;5850;51.360;12.362;2023-08-21T03:46:57;7.47;;;5.33;;
11588;SDS011;5850;51.360;12.362;2023-08-21T03:49:25;6.03;;;5.00;;
11588;SDS011;5850;51.360;12.362;2023-08-21T03:51:54;8.07;;;6.80;;
11588;SDS011;5850;51.360;12.362;2023-08-21T03:54:22;7.47;;;5.97;;
11588;SDS011;5850;51.360;12.362;2023-08-21T03:56:50;6.13;;;5.43;;
11588;SDS011;5850;51.360;12.362;2023-08-21T03:59:19;7.17;;;6.27;;
11588;SDS011;5850;51.360;12.362;2023-08-21T04:01:49;8.30;;;5.40;;
11588;SDS011;5850;51.360;12.362;2023-08-21T04:04:17;6.80;;;5.00;;
11588;SDS011;5850;51.360;12.362;2023-08-21T04:06:46;5.60;;;5.10;;
11588;SDS011;5850;51.360;12.362;2023-08-21T04:09:14;6.10;;;5.50;;
11588;SDS011;5850;51.360;12.362;2023-08-21T04:11:42;6.40;;;5.80;;
11588;SDS011;5850;51.360;12.362;2023-08-21T04:14:11;6.17;;;5.57;;
11588;SDS011;5850;51.360;12.362;2023-08-21T04:16:39;7.23;;;5.43;;
11588;SDS011;5850;51.360;12.362;2023-08-21T04:19:08;8.47;;;5.90;;
11588;SDS011;5850;51.360;12.362;2023-08-21T04:21:36;7.50;;;5.73;;
11588;SDS011;5850;51.360;12.362;2023-08-21T04:24:05;7.57;;;6.33;;
11588;SDS011;5850;51.360;12.362;2023-08-21T04:26:33;6.97;;;5.63;;
11588;SDS011;5850;51.360;12.362;2023-08-21T04:29:01;8.07;;;6.00;;
11588;SDS011;5850;51.360;12.362;2023-08-21T04:31:30;6.37;;;5.77;;
11588;SDS011;5850;51.360;12.362;2023-08-21T04:33:59;7.50;;;6.00;;
11588;SDS011;5850;51.360;12.362;2023-08-21T04:36:28;7.07;;;6.37;;
11588;SDS011;5850;51.360;12.362;2023-08-21T04:38:56;8.33;;;6.77;;
11588;SDS011;5850;51.360;12.362;2023-08-21T04:41:24;7.47;;;6.70;;
11588;SDS011;5850;51.360;12.362;2023-08-21T04:43:53;7.80;;;7.00;;
11588;SDS011;5850;51.360;12.362;2023-08-21T04:46:21;7.33;;;6.53;;
11588;SDS011;5850;51.360;12.362;2023-08-21T04:48:50;9.07;;;6.80;;
11588;SDS011;5850;51.360;12.362;2023-08-21T04:51:18;13.93;;;8.50;;
11588;SDS011;5850;51.360;12.362;2023-08-21T04:53:46;9.07;;;6.97;;
11588;SDS011;5850;51.360;12.362;2023-08-21T04:56:15;8.37;;;6.73;;
11588;SDS011;5850;51.360;12.362;2023-08-21T04:58:43;7.97;;;7.10;;
11588;SDS011;5850;51.360;12.362;2023-08-21T05:01:12;14.77;;;13.27;;
11588;SDS011;5850;51.360;12.362;2023-08-21T05:03:40;14.23;;;7.67;;
11588;SDS011;5850;51.360;12.362;2023-08-21T05:06:10;9.53;;;7.57;;
11588;SDS011;5850;51.360;12.362;2023-08-21T05:08:39;9.20;;;7.00;;
11588;SDS011;5850;51.360;12.362;2023-08-21T05:11:08;10.37;;;6.90;;
11588;SDS011;5850;51.360;12.362;2023-08-21T05:13:36;8.53;;;6.33;;
11588;SDS011;5850;51.360;12.362;2023-08-21T05:16:04;6.67;;;6.07;;
11588;SDS011;5850;51.360;12.362;2023-08-21T05:18:33;7.17;;;6.47;;
11588;SDS011;5850;51.360;12.362;2023-08-21T05:21:01;8.30;;;6.37;;
11588;SDS011;5850;51.360;12.362;2023-08-21T05:23:30;9.03;;;6.40;;
11588;SDS011;5850;51.360;12.362;2023-08-21T05:25:58;8.37;;;6.03;;
11588;SDS011;5850;51.360;12.362;2023-08-21T05:28:27;8.87;;;5.67;;
11588;SDS011;5850;51.360;12.362;2023-08-21T05:30:56;6.73;;;5.93;;
11588;SDS011;5850;51.360;12.362;2023-08-21T05:33:24;7.60;;;6.07;;
11588;SDS011;5850;51.360;12.362;2023-08-21T05:35:53;9.03;;;6.47;;
11588;SDS011;5850;51.360;12.362;2023-08-21T05:38:23;9.27;;;6.73;;
11588;SDS011;5850;51.360;12.362;2023-08-21T05:40:51;7.23;;;6.53;;
11588;SDS011;5850;51.360;12.362;2023-08-21T05:43:20;7.73;;;6.93;;
11588;SDS011;5850;51.360;12.362;2023-08-21T05:45:48;10.67;;;6.83;;
11588;SDS011;5850;51.360;12.362;2023-08-21T05:48:16;7.47;;;6.77;;
11588;SDS011;5850;51.360;12.362;2023-08-21T05:50:45;9.47;;;6.13;;
11588;SDS011;5850;51.360;12.362;2023-08-21T05:53:20;8.63;;;6.60;;
11588;SDS011;5850;51.360;12.362;2023-08-21T05:55:49;8.43;;;6.87;;
11588;SDS011;5850;51.360;12.362;2023-08-21T05:58:17;11.73;;;6.53;;
11588;SDS011;5850;51.360;12.362;2023-08-21T06:00:46;7.77;;;5.80;;
11588;SDS011;5850;51.360;12.362;2023-08-21T06:03:14;7.70;;;6.83;;
11588;SDS011;5850;51.360;12.362;2023-08-21T06:05:43;6.77;;;6.10;;
11588;SDS011;5850;51.360;12.362;2023-08-21T06:08:13;8.10;;;5.93;;
11588;SDS011;5850;51.360;12.362;2023-08-21T06:10:41;12.23;;;7.80;;
11588;SDS011;5850;51.360;12.362;2023-08-21T06:13:10;8.47;;;6.73;;
11588;SDS011;5850;51.360;12.362;2023-08-21T06:15:38;12.80;;;7.97;;
11588;SDS011;5850;51.360;12.362;2023-08-21T06:18:07;13.30;;;10.37;;
11588;SDS011;5850;51.360;12.362;2023-08-21T06:20:35;8.87;;;7.97;;
11588;SDS011;5850;51.360;12.362;2023-08-21T06:23:03;8.83;;;6.23;;
11588;SDS011;5850;51.360;12.362;2023-08-21T06:25:32;9.43;;;6.47;;
11588;SDS011;5850;51.360;12.362;2023-08-21T06:28:00;6.73;;;5.60;;
11588;SDS011;5850;51.360;12.362;2023-08-21T06:30:29;9.27;;;8.27;;
11588;SDS011;5850;51.360;12.362;2023-08-21T06:32:58;8.33;;;7.33;;
11588;SDS011;5850;51.360;12.362;2023-08-21T06:35:26;8.73;;;6.43;;
11588;SDS011;5850;51.360;12.362;2023-08-21T06:37:55;9.27;;;6.47;;
11588;SDS011;5850;51.360;12.362;2023-08-21T06:40:23;7.10;;;6.23;;
11588;SDS011;5850;51.360;12.362;2023-08-21T06:42:52;7.93;;;5.93;;
11588;SDS011;5850;51.360;12.362;2023-08-21T06:45:20;10.93;;;5.33;;
11588;SDS011;5850;51.360;12.362;2023-08-21T06:47:48;6.83;;;5.33;;
11588;SDS011;5850;51.360;12.362;2023-08-21T06:50:17;9.83;;;8.03;;
11588;SDS011;5850;51.360;12.362;2023-08-21T06:52:46;9.67;;;6.47;;
11588;SDS011;5850;51.360;12.362;2023-08-21T06:55:15;8.70;;;7.00;;
11588;SDS011;5850;51.360;12.362;2023-08-21T06:57:43;8.33;;;7.03;;
11588;SDS011;5850;51.360;12.362;2023-08-21T07:00:11;9.13;;;6.13;;
11588;SDS011;5850;51.360;12.362;2023-08-21T07:02:40;10.83;;;5.57;;
11588;SDS011;5850;51.360;12.362;2023-08-21T07:05:09;6.60;;;5.00;;
11588;SDS011;5850;51.360;12.362;2023-08-21T07:07:38;7.03;;;5.60;;
11588;SDS011;5850;51.360;12.362;2023-08-21T07:10:06;6.40;;;5.80;;
11588;SDS011;5850;51.360;12.362;2023-08-21T07:12:35;7.83;;;5.83;;
11588;SDS011;5850;51.360;12.362;2023-08-21T07:15:04;9.20;;;6.63;;
11588;SDS011;5850;51.360;12.362;2023-08-21T07:17:33;6.67;;;5.57;;
11588;SDS011;5850;51.360;12.362;2023-08-21T07:20:02;5.87;;;5.10;;
11588;SDS011;5850;51.360;12.362;2023-08-21T07:22:31;6.80;;;6.07;;
11588;SDS011;5850;51.360;12.362;2023-08-21T07:24:59;8.93;;;6.07;;
11588;SDS011;5850;51.360;12.362;2023-08-21T07:27:30;6.40;;;5.47;;
11588;SDS011;5850;51.360;12.362;2023-08-21T07:29:59;9.70;;;6.13;;
11588;SDS011;5850;51.360;12.362;2023-08-21T07:32:28;11.23;;;6.60;;
11588;SDS011;5850;51.360;12.362;2023-08-21T07:34:57;7.50;;;5.93;;
11588;SDS011;5850;51.360;12.362;2023-08-21T07:37:25;11.17;;;6.90;;
11588;SDS011;5850;51.360;12.362;2023-08-21T07:39:53;9.70;;;7.70;;
11588;SDS011;5850;51.360;12.362;2023-08-21T07:42:24;9.03;;;7.50;;
11588;SDS011;5850;51.360;12.362;2023-08-21T07:44:53;12.10;;;10.37;;
11588;SDS011;5850;51.360;12.362;2023-08-21T07:47:21;12.87;;;9.07;;
11588;SDS011;5850;51.360;12.362;2023-08-21T07:49:50;8.80;;;7.60;;
11588;SDS011;5850;51.360;12.362;2023-08-21T07:52:18;7.93;;;6.93;;
11588;SDS011;5850;51.360;12.362;2023-08-21T07:54:50;10.07;;;8.33;;
11588;SDS011;5850;51.360;12.362;2023-08-21T07:57:19;8.37;;;7.17;;
11588;SDS011;5850;51.360;12.362;2023-08-21T07:59:48;8.27;;;7.27;;
11588;SDS011;5850;51.360;12.362;2023-08-21T08:02:19;11.30;;;8.17;;
11588;SDS011;5850;51.360;12.362;2023-08-21T08:04:48;8.80;;;7.30;;
11588;SDS011;5850;51.360;12.362;2023-08-21T08:07:16;10.93;;;7.50;;
11588;SDS011;5850;51.360;12.362;2023-08-21T08:09:45;7.80;;;6.97;;
11588;SDS011;5850;51.360;12.362;2023-08-21T08:12:13;11.20;;;7.23;;
11588;SDS011;5850;51.360;12.362;2023-08-21T08:14:42;10.63;;;7.93;;
11588;SDS011;5850;51.360;12.362;2023-08-21T08:17:10;9.67;;;7.20;;
11588;SDS011;5850;51.360;12.362;2023-08-21T08:19:39;9.57;;;7.00;;
11588;SDS011;5850;51.360;12.362;2023-08-21T08:22:07;8.90;;;6.57;;
11588;SDS011;5850;51.360;12.362;2023-08-21T08:24:36;8.53;;;6.97;;
11588;SDS011;5850;51.360;12.362;2023-08-21T08:27:04;8.40;;;7.13;;
11588;SDS011;5850;51.360;12.362;2023-08-21T08:29:33;8.80;;;6.70;;
11588;SDS011;5850;51.360;12.362;2023-08-21T08:32:01;10.53;;;6.50;;
11588;SDS011;5850;51.360;12.362;2023-08-21T08:34:30;9.07;;;6.73;;
11588;SDS011;5850;51.360;12.362;2023-08-21T08:36:58;10.17;;;7.90;;
11588;SDS011;5850;51.360;12.362;2023-08-21T08:39:26;9.53;;;6.97;;
11588;SDS011;5850;51.360;12.362;2023-08-21T08:41:59;9.70;;;6.73;;
11588;SDS011;5850;51.360;12.362;2023-08-21T08:44:31;10.10;;;6.43;;
11588;SDS011;5850;51.360;12.362;2023-08-21T08:47:03;9.00;;;6.50;;
11588;SDS011;5850;51.360;12.362;2023-08-21T08:49:32;9.17;;;6.10;;
11588;SDS011;5850;51.360;12.362;2023-08-21T08:52:00;6.57;;;5.23;;
11588;SDS011;5850;51.360;12.362;2023-08-21T08:54:29;10.00;;;6.03;;
11588;SDS011;5850;51.360;12.362;2023-08-21T08:56:58;10.20;;;5.60;;
11588;SDS011;5850;51.360;12.362;2023-08-21T08:59:29;6.23;;;5.23;;
11588;SDS011;5850;51.360;12.362;2023-08-21T09:01:58;7.00;;;5.23;;
11588;SDS011;5850;51.360;12.362;2023-08-21T09:04:27;7.57;;;5.67;;
11588;SDS011;5850;51.360;12.362;2023-08-21T09:07:29;7.33;;;5.40;;
11588;SDS011;5850;51.360;12.362;2023-08-21T09:09:50;5.87;;;4.93;;
11588;SDS011;5850;51.360;12.362;2023-08-21T09:12:19;8.07;;;5.10;;
11588;SDS011;5850;51.360;12.362;2023-08-21T09:14:48;9.13;;;5.40;;
11588;SDS011;5850;51.360;12.362;2023-08-21T09:17:16;8.33;;;4.73;;
11588;SDS011;5850;51.360;12.362;2023-08-21T09:19:45;7.17;;;5.30;;
11588;SDS011;5850;51.360;12.362;2023-08-21T09:22:15;11.50;;;6.20;;
11588;SDS011;5850;51.360;12.362;2023-08-21T09:24:59;6.13;;;5.50;;
11588;SDS011;5850;51.360;12.362;2023-08-21T09:27:34;5.57;;;3.97;;
11588;SDS011;5850;51.360;12.362;2023-08-21T09:30:04;5.97;;;4.67;;
11588;SDS011;5850;51.360;12.362;2023-08-21T09:35:23;5.33;;;3.93;;
11588;SDS011;5850;51.360;12.362;2023-08-21T09:37:52;5.97;;;3.97;;
11588;SDS011;5850;51.360;12.362;2023-08-21T09:40:21;4.80;;;4.20;;
11588;SDS011;5850;51.360;12.362;2023-08-21T09:42:53;4.67;;;4.13;;
11588;SDS011;5850;51.360;12.362;2023-08-21T09:45:23;6.53;;;4.30;;
11588;SDS011;5850;51.360;12.362;2023-08-21T09:47:53;6.17;;;4.37;;
11588;SDS011;5850;51.360;12.362;2023-08-21T09:50:22;5.60;;;4.40;;
11588;SDS011;5850;51.360;12.362;2023-08-21T09:52:51;4.57;;;3.90;;
11588;SDS011;5850;51.360;12.362;2023-08-21T09:55:19;5.40;;;4.40;;
11588;SDS011;5850;51.360;12.362;2023-08-21T09:57:48;6.90;;;3.70;;
11588;SDS011;5850;51.360;12.362;2023-08-21T10:00:23;3.90;;;3.47;;
11588;SDS011;5850;51.360;12.362;2023-08-21T10:02:59;5.60;;;4.03;;
11588;SDS011;5850;51.360;12.362;2023-08-21T10:05:34;7.67;;;4.53;;
11588;SDS011;5850;51.360;12.362;2023-08-21T10:08:05;6.57;;;4.03;;
11588;SDS011;5850;51.360;12.362;2023-08-21T10:10:36;4.77;;;3.57;;
11588;SDS011;5850;51.360;12.362;2023-08-21T10:13:07;4.40;;;3.77;;
11588;SDS011;5850;51.360;12.362;2023-08-21T10:15:36;7.97;;;3.50;;
11588;SDS011;5850;51.360;12.362;2023-08-21T10:18:21;5.07;;;3.20;;
11588;SDS011;5850;51.360;12.362;2023-08-21T10:20:52;4.30;;;2.97;;
11588;SDS011;5850;51.360;12.362;2023-08-21T10:23:24;5.30;;;3.10;;
11588;SDS011;5850;51.360;12.362;2023-08-21T10:25:58;5.40;;;2.90;;
11588;SDS011;5850;51.360;12.362;2023-08-21T10:28:42;5.07;;;2.73;;
11588;SDS011;5850;51.360;12.362;2023-08-21T10:31:25;5.37;;;3.17;;
11588;SDS011;5850;51.360;12.362;2023-08-21T10:34:03;5.47;;;2.90;;
11588;SDS011;5850;51.360;12.362;2023-08-21T10:39:28;7.83;;;3.33;;
11588;SDS011;5850;51.360;12.362;2023-08-21T10:42:02;4.30;;;3.00;;
11588;SDS011;5850;51.360;12.362;2023-08-21T10:50:10;6.67;;;2.63;;
11588;SDS011;5850;51.360;12.362;2023-08-21T10:52:39;4.60;;;2.30;;
11588;SDS011;5850;51.360;12.362;2023-08-21T10:55:15;2.80;;;2.37;;
11588;SDS011;5850;51.360;12.362;2023-08-21T10:57:51;2.67;;;2.30;;
11588;SDS011;5850;51.360;12.362;2023-08-21T11:00:20;3.33;;;2.27;;
11588;SDS011;5850;51.360;12.362;2023-08-21T11:02:49;3.33;;;2.37;;
11588;SDS011;5850;51.360;12.362;2023-08-21T11:05:18;4.40;;;2.20;;
11588;SDS011;5850;51.360;12.362;2023-08-21T11:07:47;4.00;;;2.53;;
11588;SDS011;5850;51.360;12.362;2023-08-21T11:10:17;3.27;;;2.40;;
11588;SDS011;5850;51.360;12.362;2023-08-21T11:12:59;2.63;;;2.40;;
11588;SDS011;5850;51.360;12.362;2023-08-21T11:15:30;5.77;;;2.20;;
11588;SDS011;5850;51.360;12.362;2023-08-21T11:18:01;4.97;;;2.13;;
11588;SDS011;5850;51.360;12.362;2023-08-21T11:20:35;5.50;;;2.77;;
11588;SDS011;5850;51.360;12.362;2023-08-21T11:23:09;2.50;;;2.30;;
11588;SDS011;5850;51.360;12.362;2023-08-21T11:25:59;2.90;;;2.37;;
11588;SDS011;5850;51.360;12.362;2023-08-21T11:28:47;4.17;;;2.40;;
11588;SDS011;5850;51.360;12.362;2023-08-21T11:31:16;2.53;;;2.10;;
11588;SDS011;5850;51.360;12.362;2023-08-21T11:33:54;2.23;;;1.90;;
11588;SDS011;5850;51.360;12.362;2023-08-21T11:36:43;3.73;;;2.93;;
11588;SDS011;5850;51.360;12.362;2023-08-21T11:39:15;4.57;;;2.77;;
11588;SDS011;5850;51.360;12.362;2023-08-21T11:41:56;3.73;;;2.70;;
11588;SDS011;5850;51.360;12.362;2023-08-21T11:44:25;5.07;;;2.80;;
11588;SDS011;5850;51.360;12.362;2023-08-21T11:46:55;4.30;;;2.72;;
11588;SDS011;5850;51.360;12.362;2023-08-21T11:49:32;2.80;;;2.58;;
11588;SDS011;5850;51.360;12.362;2023-08-21T11:52:01;3.05;;;2.58;;
11588;SDS011;5850;51.360;12.362;2023-08-21T11:54:36;5.53;;;2.83;;
11588;SDS011;5850;51.360;12.362;2023-08-21T11:57:11;5.25;;;2.75;;
11588;SDS011;5850;51.360;12.362;2023-08-21T11:59:41;3.25;;;2.95;;
11588;SDS011;5850;51.360;12.362;2023-08-21T12:02:13;7.22;;;3.33;;
11588;SDS011;5850;51.360;12.362;2023-08-21T12:04:44;3.88;;;2.78;;
11588;SDS011;5850;51.360;12.362;2023-08-21T12:07:12;3.90;;;3.00;;
11588;SDS011;5850;51.360;12.362;2023-08-21T12:09:45;5.32;;;3.33;;
11588;SDS011;5850;51.360;12.362;2023-08-21T12:12:15;5.70;;;3.45;;
11588;SDS011;5850;51.360;12.362;2023-08-21T12:14:44;6.53;;;3.30;;
11588;SDS011;5850;51.360;12.362;2023-08-21T12:17:13;3.35;;;3.05;;
11588;SDS011;5850;51.360;12.362;2023-08-21T12:19:43;5.15;;;3.40;;
11588;SDS011;5850;51.360;12.362;2023-08-21T12:22:13;6.22;;;3.65;;
11588;SDS011;5850;51.360;12.362;2023-08-21T12:24:41;5.38;;;3.70;;
11588;SDS011;5850;51.360;12.362;2023-08-21T12:27:13;4.82;;;3.40;;
11588;SDS011;5850;51.360;12.362;2023-08-21T12:29:42;4.50;;;3.60;;
11588;SDS011;5850;51.360;12.362;2023-08-21T12:32:14;4.97;;;3.45;;
11588;SDS011;5850;51.360;12.362;2023-08-21T12:34:47;8.60;;;3.33;;
11588;SDS011;5850;51.360;12.362;2023-08-21T12:37:18;4.33;;;3.07;;
11588;SDS011;5850;51.360;12.362;2023-08-21T12:39:47;3.60;;;3.30;;
11588;SDS011;5850;51.360;12.362;2023-08-21T12:42:24;4.53;;;3.37;;
11588;SDS011;5850;51.360;12.362;2023-08-21T12:44:52;3.63;;;3.13;;
11588;SDS011;5850;51.360;12.362;2023-08-21T12:47:23;5.28;;;3.83;;
11588;SDS011;5850;51.360;12.362;2023-08-21T12:49:52;5.47;;;3.53;;
11588;SDS011;5850;51.360;12.362;2023-08-21T12:52:21;6.30;;;4.03;;
11588;SDS011;5850;51.360;12.362;2023-08-21T12:54:49;5.80;;;3.85;;
11588;SDS011;5850;51.360;12.362;2023-08-21T12:57:18;4.93;;;3.72;;
11588;SDS011;5850;51.360;12.362;2023-08-21T12:59:48;4.20;;;3.80;;
11588;SDS011;5850;51.360;12.362;2023-08-21T13:02:17;6.90;;;3.85;;
11588;SDS011;5850;51.360;12.362;2023-08-21T13:04:46;5.70;;;4.22;;
11588;SDS011;5850;51.360;12.362;2023-08-21T13:07:14;5.80;;;3.80;;
11588;SDS011;5850;51.360;12.362;2023-08-21T13:09:44;4.18;;;3.75;;
11588;SDS011;5850;51.360;12.362;2023-08-21T13:12:12;4.57;;;3.60;;
11588;SDS011;5850;51.360;12.362;2023-08-21T13:14:41;5.17;;;4.13;;
11588;SDS011;5850;51.360;12.362;2023-08-21T13:17:09;4.85;;;3.80;;
11588;SDS011;5850;51.360;12.362;2023-08-21T13:19:38;5.73;;;3.67;;
11588;SDS011;5850;51.360;12.362;2023-08-21T13:22:06;4.97;;;3.93;;
11588;SDS011;5850;51.360;12.362;2023-08-21T13:24:35;7.83;;;3.63;;
11588;SDS011;5850;51.360;12.362;2023-08-21T13:27:03;5.55;;;3.83;;
11588;SDS011;5850;51.360;12.362;2023-08-21T13:29:33;5.07;;;3.30;;
11588;SDS011;5850;51.360;12.362;2023-08-21T13:32:01;4.03;;;3.60;;
11588;SDS011;5850;51.360;12.362;2023-08-21T13:34:30;4.10;;;3.70;;
11588;SDS011;5850;51.360;12.362;2023-08-21T13:36:59;5.78;;;3.80;;
11588;SDS011;5850;51.360;12.362;2023-08-21T13:39:30;3.65;;;3.28;;
11588;SDS011;5850;51.360;12.362;2023-08-21T13:42:01;7.88;;;4.15;;
11588;SDS011;5850;51.360;12.362;2023-08-21T13:44:30;7.03;;;3.97;;
11588;SDS011;5850;51.360;12.362;2023-08-21T13:46:59;4.73;;;3.93;;
11588;SDS011;5850;51.360;12.362;2023-08-21T13:49:28;6.82;;;3.35;;
11588;SDS011;5850;51.360;12.362;2023-08-21T13:51:56;4.07;;;3.58;;
11588;SDS011;5850;51.360;12.362;2023-08-21T13:54:25;6.05;;;3.28;;
11588;SDS011;5850;51.360;12.362;2023-08-21T13:56:54;6.40;;;3.22;;
11588;SDS011;5850;51.360;12.362;2023-08-21T13:59:23;5.93;;;3.63;;
11588;SDS011;5850;51.360;12.362;2023-08-21T14:01:51;3.53;;;3.08;;
11588;SDS011;5850;51.360;12.362;2023-08-21T14:04:20;4.03;;;3.10;;
11588;SDS011;5850;51.360;12.362;2023-08-21T14:06:49;4.90;;;3.90;;
11588;SDS011;5850;51.360;12.362;2023-08-21T14:09:17;5.70;;;3.40;;
11588;SDS011;5850;51.360;12.362;2023-08-21T14:11:46;4.07;;;3.30;;
11588;SDS011;5850;51.360;12.362;2023-08-21T14:14:14;5.22;;;3.50;;
11588;SDS011;5850;51.360;12.362;2023-08-21T14:16:43;7.43;;;3.35;;
11588;SDS011;5850;51.360;12.362;2023-08-21T14:19:11;4.15;;;3.70;;
11588;SDS011;5850;51.360;12.362;2023-08-21T14:21:40;3.95;;;3.47;;
11588;SDS011;5850;51.360;12.362;2023-08-21T14:24:08;5.85;;;3.20;;
11588;SDS011;5850;51.360;12.362;2023-08-21T14:26:37;3.60;;;2.90;;
11588;SDS011;5850;51.360;12.362;2023-08-21T14:29:06;4.85;;;3.13;;
11588;SDS011;5850;51.360;12.362;2023-08-21T14:31:34;4.80;;;3.25;;
11588;SDS011;5850;51.360;12.362;2023-08-21T14:34:03;6.70;;;3.53;;
11588;SDS011;5850;51.360;12.362;2023-08-21T14:36:31;3.92;;;3.35;;
11588;SDS011;5850;51.360;12.362;2023-08-21T14:39:00;5.32;;;3.22;;
11588;SDS011;5850;51.360;12.362;2023-08-21T14:41:30;4.43;;;3.65;;
11588;SDS011;5850;51.360;12.362;2023-08-21T14:43:58;4.78;;;3.05;;
11588;SDS011;5850;51.360;12.362;2023-08-21T14:46:26;4.80;;;3.40;;
11588;SDS011;5850;51.360;12.362;2023-08-21T14:49:08;4.53;;;3.47;;
11588;SDS011;5850;51.360;12.362;2023-08-21T14:51:36;6.10;;;4.20;;
11588;SDS011;5850;51.360;12.362;2023-08-21T14:54:05;4.00;;;3.60;;
11588;SDS011;5850;51.360;12.362;2023-08-21T14:56:34;4.82;;;3.72;;
11588;SDS011;5850;51.360;12.362;2023-08-21T14:59:02;3.67;;;3.35;;
11588;SDS011;5850;51.360;12.362;2023-08-21T15:01:31;6.35;;;4.05;;
11588;SDS011;5850;51.360;12.362;2023-08-21T15:04:00;6.72;;;4.13;;
11588;SDS011;5850;51.360;12.362;2023-08-21T15:06:28;6.15;;;4.40;;
11588;SDS011;5850;51.360;12.362;2023-08-21T15:08:57;4.60;;;4.20;;
11588;SDS011;5850;51.360;12.362;2023-08-21T15:11:25;4.90;;;3.85;;
11588;SDS011;5850;51.360;12.362;2023-08-21T15:13:55;4.40;;;4.00;;
11588;SDS011;5850;51.360;12.362;2023-08-21T15:16:29;11.52;;;10.32;;